• Join FlightAware (Why Join?)
  • Login
  • US Flag 
04:40PM EDT


 

Airport Tracker/Info


-or-


 

Live Flight TrackerFlight Track Log ✈ N5659W ✈ 04-Apr-2014 ✈ H34 - KIKK

Flight Track Log - Related Links

Times and Time Zones

All times are in EDT time to prevent confusion due to time zone crossing. See the N5659W flight status page for this flight to view local times or setup timezone preferences in your user account.

Time Position Orientation Groundspeed Altitude Reporting Facility
EDT Latitude Longitude Course Direction KTS MPH feet Rate Location/Type
03:32PM 36.1575 -93.7003 38° Northeast 87 100 4,500  Level Memphis Center
03:33PM 36.1772 -93.6811 38° Northeast 82 94 5,100 480 Climbing Memphis Center
03:34PM 36.1919 -93.6644 42° Northeast 77 89 5,600 480 Climbing Memphis Center
03:35PM 36.2061 -93.6478 44° Northeast 72 83 6,100 420 Climbing Memphis Center
03:36PM 36.2208 -93.6292 46° Northeast 72 83 6,500 420 Climbing Memphis Center
03:37PM 36.2344 -93.6075 52° Northeast 75 86 7,000 420 Climbing Memphis Center
03:38PM 36.2467 -93.5897 50° Northeast 73 84 7,400 360 Climbing Memphis Center
03:39PM 36.2631 -93.5697 45° Northeast 72 83 7,800 360 Climbing Memphis Center
03:40PM 36.2753 -93.5531 48° Northeast 71 82 8,200 300 Climbing Memphis Center
03:41PM 36.2881 -93.5322 53° Northeast 71 82 8,500 180 Climbing Memphis Center
03:42PM 36.3022 -93.5164 42° Northeast 71 82 8,600 60 Climbing Memphis Center
03:43PM 36.3161 -93.5022 39° Northeast 71 82 8,700 120 Climbing Memphis Center
03:44PM 36.3339 -93.4808 44° Northeast 71 82 8,900 120 Climbing Memphis Center
03:45PM 36.3489 -93.4603 48° Northeast 72 83 9,000 60 Climbing Memphis Center
03:46PM 36.3669 -93.4389 44° Northeast 83 96 9,100  Climbing Memphis Center
03:48PM 36.3872 -93.4175 40° Northeast 90 104 9,000  Descending Memphis Center
03:49PM 36.4064 -93.3964 42° Northeast 91 105 9,100  Climbing Memphis Center
03:50PM 36.4264 -93.3758 40° Northeast 91 105 9,100  Level Memphis Center
03:51PM 36.4494 -93.3544 37° Northeast 91 105 9,200  Climbing Memphis Center
03:52PM 36.4717 -93.3333 37° Northeast 98 113 9,100 -60 Descending Memphis Center
03:53PM 36.4919 -93.3097 43° Northeast 99 114 9,100 -60 Level Memphis Center
03:54PM 36.5108 -93.2861 45° Northeast 99 114 9,000  Descending Memphis Center
03:55PM 36.5303 -93.2614 46° Northeast 99 114 9,100  Climbing Memphis Center
03:56PM 36.5503 -93.2389 42° Northeast 99 114 9,100  Level Memphis Center
03:57PM 36.5756 -93.2144 38° Northeast 99 114 9,100  Level Memphis Center
03:58PM 36.5947 -93.1886 47° Northeast 99 114 9,100  Level Memphis Center
03:59PM 36.6139 -93.1639 46° Northeast 99 114 9,100  Level Memphis Center
04:00PM 36.6344 -93.1419 41° Northeast 99 114 9,100  Level Memphis Center
04:01PM 36.6544 -93.1189 43° Northeast 98 113 9,100  Level Memphis Center
04:02PM 36.6739 -93.0978 41° Northeast 97 112 9,100  Level Memphis Center
04:03PM 36.6939 -93.0767 40° Northeast 96 110 9,100 -60 Level Memphis Center
04:04PM 36.7186 -93.0503 41° Northeast 96 110 9,000  Descending Memphis Center
04:05PM 36.7400 -93.0292 38° Northeast 96 110 9,100  Climbing Memphis Center
04:06PM 36.7611 -93.0086 38° Northeast 96 110 9,000 -60 Descending Memphis Center
04:07PM 36.7800 -92.9875 42° Northeast 95 109 9,000  Level Memphis Center
04:08PM 36.8031 -92.9606 43° Northeast 94 108 9,000  Level Kansas City Center
04:09PM 36.8239 -92.9400 38° Northeast 94 108 9,000  Level Kansas City Center
04:10PM 36.8436 -92.9186 41° Northeast 94 108 9,100  Climbing Kansas City Center
04:11PM 36.8636 -92.8967 41° Northeast 94 108 9,100 -60 Level Kansas City Center
04:13PM 36.8844 -92.8744 40° Northeast 94 108 9,000  Descending Kansas City Center
04:14PM 36.9044 -92.8506 44° Northeast 95 109 9,100  Climbing Kansas City Center
04:15PM 36.9289 -92.8219 43° Northeast 95 109 9,000  Descending Kansas City Center
04:16PM 36.9497 -92.7997 40° Northeast 96 110 9,100  Climbing Kansas City Center
04:17PM 36.9706 -92.7794 38° Northeast 96 110 9,000 -60 Descending Kansas City Center
04:18PM 36.9906 -92.7578 41° Northeast 96 110 9,000  Level Kansas City Center
04:19PM 37.0108 -92.7347 42° Northeast 96 110 9,100  Climbing Kansas City Center
04:20PM 37.0319 -92.7128 40° Northeast 96 110 9,100 120 Level Kansas City Center
04:21PM 37.0489 -92.6922 44° Northeast 94 108 9,400 240 Climbing Kansas City Center
04:22PM 37.0717 -92.6692 39° Northeast 91 105 9,700 180 Climbing Kansas City Center
04:23PM 37.0897 -92.6528 36° Northeast 86 99 9,800 120 Climbing Kansas City Center
04:24PM 37.1053 -92.6353 42° Northeast 81 93 10,000 180 Climbing Kansas City Center
04:25PM 37.1225 -92.6158 42° Northeast 80 92 10,200 240 Climbing Kansas City Center
04:26PM 37.1406 -92.5967 40° Northeast 80 92 10,500 180 Climbing Kansas City Center
04:27PM 37.1561 -92.5775 44° Northeast 80 92 10,600 60 Climbing Kansas City Center
04:28PM 37.1742 -92.5561 43° Northeast 81 93 10,700 180 Climbing Kansas City Center
04:29PM 37.1956 -92.5283 46° Northeast 87 100 11,000 180 Climbing Kansas City Center
04:30PM 37.2136 -92.5061 44° Northeast 87 100 11,100  Climbing Kansas City Center
04:31PM 37.2342 -92.4825 42° Northeast 93 107 11,100  Level Kansas City Center
04:32PM 37.2553 -92.4592 41° Northeast 97 112 11,100  Level Kansas City Center
04:33PM 37.2764 -92.4339 44° Northeast 98 113 11,100  Level Kansas City Center
04:34PM 37.2978 -92.4058 46° Northeast 103 119 11,100  Level Kansas City Center
04:35PM 37.3194 -92.3783 45° Northeast 106 122 11,100 -60 Level Kansas City Center
04:36PM 37.3458 -92.3500 40° Northeast 106 122 11,000  Descending Kansas City Center
04:37PM 37.3678 -92.3294 37° Northeast 105 121 11,100  Climbing Kansas City Center
04:38PM 37.3914 -92.3086 35° Northeast 104 120 11,000  Descending Kansas City Center
04:39PM 37.4117 -92.2831 45° Northeast 103 119 11,100  Climbing Kansas City Center
04:40PM 37.4333 -92.2578 43° Northeast 104 120 11,000 -60 Descending Kansas City Center
04:41PM 37.4539 -92.2314 46° Northeast 104 120 11,000  Level Kansas City Center
04:42PM 37.4747 -92.2056 45° Northeast 104 120 11,100  Climbing Kansas City Center
04:44PM 37.5006 -92.1781 40° Northeast 104 120 11,000 -60 Descending Kansas City Center
04:45PM 37.5222 -92.1561 39° Northeast 103 119 11,000  Level Kansas City Center
04:46PM 37.5431 -92.1325 42° Northeast 103 119 11,000  Level Kansas City Center
04:47PM 37.5642 -92.1083 42° Northeast 103 119 11,000 -60 Level Kansas City Center
04:48PM 37.5842 -92.0842 44° Northeast 103 119 10,900 -60 Descending Kansas City Center
04:49PM 37.6058 -92.0597 42° Northeast 103 119 10,900  Level Kansas City Center
04:50PM 37.6300 -92.0317 43° Northeast 102 117 11,000  Climbing Kansas City Center
04:51PM 37.6497 -92.0089 42° Northeast 101 116 11,000  Level Kansas City Center
04:52PM 37.6708 -91.9847 42° Northeast 101 116 11,000  Level Kansas City Center
04:53PM 37.6922 -91.9622 40° Northeast 101 116 11,000  Level Kansas City Center
04:54PM 37.7131 -91.9392 41° Northeast 101 116 11,000  Level Kansas City Center
04:55PM 37.7347 -91.9144 42° Northeast 101 116 11,000  Level Kansas City Center
04:56PM 37.7572 -91.8903 40° Northeast 101 116 11,000 -60 Level Kansas City Center
04:57PM 37.7833 -91.8600 42° Northeast 102 117 10,900  Descending Kansas City Center
04:58PM 37.8042 -91.8364 42° Northeast 102 117 11,000  Climbing Kansas City Center
04:59PM 37.8239 -91.8108 46° Northeast 102 117 11,000  Level Kansas City Center
05:00PM 37.8442 -91.7881 42° Northeast 101 116 11,000  Level Kansas City Center
05:01PM 37.8650 -91.7636 43° Northeast 101 116 11,000  Level Kansas City Center
05:02PM 37.8903 -91.7378 39° Northeast 101 116 11,100 60 Climbing Kansas City Center
05:03PM 37.9114 -91.7156 40° Northeast 101 116 11,200  Climbing Kansas City Center
05:04PM 37.9314 -91.6917 43° Northeast 100 115 11,200  Level Kansas City Center
05:05PM 37.9519 -91.6675 43° Northeast 100 115 11,200  Level Kansas City Center
05:06PM 37.9736 -91.6439 41° Northeast 101 116 11,200  Level Kansas City Center
05:07PM 37.9950 -91.6183 43° Northeast 102 117 11,200  Level Kansas City Center
05:08PM 38.0167 -91.5928 43° Northeast 103 119 11,200 -60 Level Kansas City Center
05:09PM 38.0417 -91.5639 42° Northeast 103 119 11,100 -60 Descending Kansas City Center
05:10PM 38.0625 -91.5408 41° Northeast 102 117 11,100 -60 Level Kansas City Center
05:11PM 38.0814 -91.5181 44° Northeast 99 114 11,000  Descending Kansas City Center
05:13PM 38.1014 -91.4983 38° Northeast 94 108 11,100  Climbing Kansas City Center
05:14PM 38.1197 -91.4750 45° Northeast 93 107 11,100  Level Kansas City Center
05:15PM 38.1397 -91.4503 44° Northeast 95 109 11,100  Level Kansas City Center
05:16PM 38.1603 -91.4269 42° Northeast 96 110 11,200 -60 Climbing Kansas City Center
05:17PM 38.1853 -91.3986 42° Northeast 97 112 11,000 -60 Descending Kansas City Center
05:18PM 38.2036 -91.3775 42° Northeast 97 112 11,100  Climbing Kansas City Center
05:19PM 38.2233 -91.3525 45° Northeast 97 112 11,100  Level Kansas City Center
05:20PM 38.2447 -91.3244 46° Northeast 106 122 11,100 -60 Level Kansas City Center
05:21PM 38.2725 -91.2950 40° Northeast 106 122 11,000 -60 Descending Kansas City Center
05:22PM 38.2933 -91.2692 44° Northeast 106 122 11,000  Level Kansas City Center
05:23PM 38.3133 -91.2425 46° Northeast 106 122 11,000  Level Kansas City Center
05:24PM 38.3336 -91.2175 44° Northeast 106 122 11,000  Level Kansas City Center
05:25PM 38.3525 -91.1967 41° Northeast 97 112 11,100  Climbing Kansas City Center
05:26PM 38.3781 -91.1694 40° Northeast 96 110 11,100  Level Kansas City Center
05:27PM 38.3986 -91.1450 43° Northeast 97 112 11,100  Level Kansas City Center
05:28PM 38.4197 -91.1197 43° Northeast 100 115 11,100  Level Kansas City Center
05:29PM 38.4419 -91.0947 41° Northeast 102 117 11,100  Level Kansas City Center
05:30PM 38.4639 -91.0706 41° Northeast 102 117 11,100  Level Kansas City Center
05:31PM 38.4867 -91.0456 41° Northeast 104 120 11,200  Climbing Kansas City Center
05:32PM 38.5122 -91.0142 44° Northeast 104 120 11,100 -60 Descending Kansas City Center
05:33PM 38.5347 -90.9869 43° Northeast 106 122 11,100  Level Kansas City Center
05:34PM 38.5569 -90.9600 43° Northeast 109 125 11,100  Level Kansas City Center
05:35PM 38.5797 -90.9339 42° Northeast 109 125 11,100 -60 Level Kansas City Center
05:36PM 38.6025 -90.9072 42° Northeast 109 125 11,000  Descending Kansas City Center
05:37PM 38.6236 -90.8819 43° Northeast 109 125 11,100  Climbing Kansas City Center
05:38PM 38.6481 -90.8519 44° Northeast 107 123 11,100  Level Kansas City Center
05:39PM 38.6692 -90.8267 43° Northeast 105 121 11,100  Level Kansas City Center
05:40PM 38.6903 -90.8008 44° Northeast 105 121 11,100  Level Kansas City Center
05:41PM 38.7117 -90.7778 40° Northeast 104 120 11,100  Level Kansas City Center
05:42PM 38.7342 -90.7519 42° Northeast 104 120 11,100  Level Kansas City Center
05:44PM 38.7569 -90.7247 43° Northeast 107 123 11,100  Level Kansas City Center
05:45PM 38.7794 -90.6969 44° Northeast 110 127 11,100  Level Kansas City Center
05:46PM 38.8064 -90.6656 42° Northeast 110 127 11,100  Level Kansas City Center
05:47PM 38.8294 -90.6389 42° Northeast 110 127 11,100  Level Kansas City Center
05:48PM 38.8522 -90.6106 44° Northeast 110 127 11,100  Level Kansas City Center
05:49PM 38.8744 -90.5828 44° Northeast 111 128 11,100  Level Kansas City Center
05:50PM 38.8969 -90.5575 41° Northeast 110 127 11,100  Level Kansas City Center
05:51PM 38.9189 -90.5306 44° Northeast 110 127 11,100  Level Kansas City Center
05:52PM 38.9436 -90.4994 44° Northeast 110 127 11,100  Level Kansas City Center
05:53PM 38.9678 -90.4703 43° Northeast 110 127 11,100  Level Kansas City Center
05:54PM 38.9906 -90.4433 43° Northeast 109 125 11,100 -60 Level Kansas City Center
05:55PM 39.0158 -90.4153 41° Northeast 110 127 11,000  Descending Kansas City Center
05:56PM 39.0361 -90.3903 44° Northeast 105 121 11,100  Climbing Kansas City Center
05:57PM 39.0581 -90.3664 40° Northeast 105 121 11,100 -60 Level Kansas City Center
05:58PM 39.0808 -90.3417 40° Northeast 102 117 11,000 -60 Descending Kansas City Center
05:59PM 39.1028 -90.3156 43° Northeast 102 117 11,000  Level Kansas City Center
06:00PM 39.1233 -90.2914 42° Northeast 101 116 11,000  Level Kansas City Center
06:01PM 39.1447 -90.2653 43° Northeast 101 116 11,100  Climbing Kansas City Center
06:02PM 39.1642 -90.2411 44° Northeast 99 114 11,100  Level Kansas City Center
06:03PM 39.1861 -90.2144 43° Northeast 99 114 11,200  Climbing Kansas City Center
06:04PM 39.2089 -90.1864 44° Northeast 111 128 11,100 -120 Descending Kansas City Center
06:05PM 39.2306 -90.1575 46° Northeast 113 130 11,000  Descending Kansas City Center
06:06PM 39.2494 -90.1314 47° Northeast 106 122 11,100  Climbing Kansas City Center
06:07PM 39.2694 -90.1078 42° Northeast 101 116 11,100  Level Kansas City Center
06:08PM 39.2900 -90.0867 38° Northeast 99 114 11,200 60 Climbing Kansas City Center
06:09PM 39.3153 -90.0586 41° Northeast 99 114 11,300  Climbing Kansas City Center
06:10PM 39.3381 -90.0322 42° Northeast 104 120 11,200 -120 Descending Kansas City Center
06:11PM 39.3600 -90.0028 46° Northeast 110 127 11,100 -60 Descending Kansas City Center
06:13PM 39.3814 -89.9736 47° Northeast 111 128 11,100  Level Kansas City Center
06:14PM 39.4028 -89.9489 42° Northeast 109 125 11,100  Level Kansas City Center
06:15PM 39.4239 -89.9253 41° Northeast 105 121 11,100  Level Kansas City Center
06:16PM 39.4483 -89.8967 42° Northeast 101 116 11,200  Climbing Kansas City Center
06:17PM 39.4703 -89.8733 39° Northeast 101 116 11,100 -60 Descending Kansas City Center
06:18PM 39.4906 -89.8478 44° Northeast 101 116 11,100 -60 Level Kansas City Center
06:19PM 39.5131 -89.8219 42° Northeast 103 119 11,000 -60 Descending Kansas City Center
06:20PM 39.5339 -89.7972 42° Northeast 103 119 11,000  Level Kansas City Center
06:21PM 39.5542 -89.7714 44° Northeast 103 119 11,000  Level Kansas City Center
06:22PM 39.5775 -89.7392 47° Northeast 103 119 11,100  Climbing Kansas City Center
06:23PM 39.5975 -89.7133 45° Northeast 103 119 11,100 -60 Level Kansas City Center
06:24PM 39.6186 -89.6875 43° Northeast 103 119 11,000  Descending Kansas City Center
06:25PM 39.6389 -89.6622 44° Northeast 103 119 11,100  Climbing Kansas City Center
06:26PM 39.6600 -89.6394 40° Northeast 102 117 11,100  Level Kansas City Center
06:27PM 39.6853 -89.6058 46° Northeast 103 119 11,100 -60 Level Kansas City Center
06:28PM 39.7069 -89.5819 40° Northeast 103 119 11,000 -60 Descending Kansas City Center
06:29PM 39.7281 -89.5533 46° Northeast 103 119 11,000  Level Kansas City Center
06:30PM 39.7481 -89.5272 45° Northeast 103 119 11,000  Level Kansas City Center
06:31PM 39.7681 -89.5014 45° Northeast 103 119 11,000  Level Kansas City Center
06:32PM 39.7889 -89.4756 44° Northeast 103 119 11,000  Level Kansas City Center
06:33PM 39.8092 -89.4511 43° Northeast 103 119 11,000  Level Kansas City Center
06:34PM 39.8294 -89.4275 42° Northeast 102 117 11,100  Climbing Kansas City Center
06:35PM 39.8547 -89.3994 40° Northeast 100 115 11,100  Level Kansas City Center
06:36PM 39.8750 -89.3744 43° Northeast 100 115 11,100  Level Kansas City Center
06:37PM 39.8972 -89.3450 45° Northeast 108 124 11,200  Climbing Kansas City Center
06:38PM 39.9169 -89.3158 49° Northeast 108 124 11,100 -60 Descending Kansas City Center
06:39PM 39.9389 -89.2847 47° Northeast 111 128 11,100 -60 Level Kansas City Center
06:40PM 39.9600 -89.2578 44° Northeast 111 128 11,000  Descending Kansas City Center
06:42PM 39.9842 -89.2264 45° Northeast 108 124 11,100  Climbing Kansas City Center
06:43PM 40.0044 -89.2025 42° Northeast 104 120 11,100  Level Kansas City Center
06:44PM 40.0256 -89.1806 39° Northeast 101 116 11,100  Level Kansas City Center
06:45PM 40.0478 -89.1561 40° Northeast 101 116 11,200  Climbing Kansas City Center
06:46PM 40.0697 -89.1264 46° Northeast 108 124 11,100 -60 Descending Kansas City Center
06:47PM 40.0906 -89.0989 45° Northeast 109 125 11,100  Level Kansas City Center
06:48PM 40.1181 -89.0650 43° Northeast 109 125 11,100  Level Kansas City Center
06:49PM 40.1389 -89.0383 44° Northeast 109 125 11,100  Level Kansas City Center
06:50PM 40.1592 -89.0108 46° Northeast 108 124 11,100  Level Kansas City Center
06:51PM 40.1817 -88.9858 40° Northeast 107 123 11,100  Level Kansas City Center
06:52PM 40.2036 -88.9597 42° Northeast 107 123 11,100 -60 Level Kansas City Center
06:53PM 40.2244 -88.9333 44° Northeast 107 123 11,000  Descending Kansas City Center
06:54PM 40.2500 -88.8997 45° Northeast 108 124 11,100  Climbing Chicago Center
06:55PM 40.2706 -88.8714 46° Northeast 108 124 11,100  Level Chicago Center
06:56PM 40.2964 -88.8394 43° Northeast 108 124 11,100 -60 Level Chicago Center
06:57PM 40.3172 -88.8131 44° Northeast 107 123 11,000 -60 Descending Chicago Center
06:58PM 40.3372 -88.7881 44° Northeast 104 120 11,000  Level Chicago Center
06:59PM 40.3569 -88.7628 44° Northeast 103 119 11,100  Climbing Chicago Center
07:00PM 40.3781 -88.7383 41° Northeast 102 117 11,100  Level Chicago Center
07:01PM 40.3994 -88.7100 45° Northeast 105 121 11,100  Level Chicago Center
07:02PM 40.4278 -88.6756 43° Northeast 112 129 11,100  Level Chicago Center
07:03PM 40.4500 -88.6467 45° Northeast 113 130 11,100  Level Chicago Center
07:04PM 40.4736 -88.6178 43° Northeast 113 130 11,100  Level Chicago Center
07:05PM 40.4958 -88.5900 44° Northeast 113 130 11,100  Level Chicago Center
07:06PM 40.5186 -88.5625 43° Northeast 112 129 11,100  Level Chicago Center
07:07PM 40.5406 -88.5347 44° Northeast 112 129 11,100 -240 Level Chicago Center
07:09PM 40.5689 -88.4989 44° Northeast 114 131 10,700 -420 Descending Chicago Center
07:10PM 40.5928 -88.4656 47° Northeast 120 138 10,300 -540 Descending Chicago Center
07:11PM 40.6167 -88.4308 48° Northeast 124 143 9,700 -600 Descending Chicago Center
07:12PM 40.6417 -88.4006 43° Northeast 124 143 9,100 -540 Descending Chicago Center
07:13PM 40.6647 -88.3697 45° Northeast 123 142 8,600 -660 Descending Chicago Center
07:14PM 40.6947 -88.3347 41° Northeast 123 142 7,800 -720 Descending Chicago Center
07:15PM 40.7158 -88.3031 49° Northeast 120 138 7,200 -540 Descending Chicago Center
07:16PM 40.7356 -88.2725 50° Northeast 114 131 6,700 -300 Descending Chicago Center
07:17PM 40.7564 -88.2425 47° Northeast 114 131 6,600 -540 Descending Chicago Center
07:18PM 40.7775 -88.2114 48° Northeast 113 130 5,600 -1,080 Descending Chicago Center
07:19PM 40.7983 -88.1731 54° Northeast 118 136 4,400 -1,020 Descending Chicago Center
07:20PM 40.8242 -88.1264 54° Northeast 126 145 3,500 -600 Descending Chicago Center
07:21PM 40.8439 -88.0883 56° Northeast 126 145 3,200 -240 Descending Chicago Center
07:22PM 40.8658 -88.0586 46° Northeast 125 144 3,100 -180 Descending Chicago Center
07:23PM 40.8908 -88.0389 31° Northeast 113 130 2,900 -240 Descending Chicago Center